createdAt,value
2022-11-01T00:01:38.106Z,13.90
2022-11-01T00:04:42.461Z,13.90
2022-11-01T00:07:45.489Z,13.90
2022-11-01T00:10:48.552Z,13.90
2022-11-01T00:13:51.930Z,13.90
2022-11-01T00:16:54.995Z,13.90
2022-11-01T00:19:59.294Z,13.90
2022-11-01T00:23:02.604Z,13.90
2022-11-01T00:26:06.447Z,14.00
2022-11-01T00:29:09.580Z,13.90
2022-11-01T00:32:12.597Z,13.90
2022-11-01T00:35:17.048Z,13.90
2022-11-01T00:38:20.675Z,13.90
2022-11-01T00:41:23.722Z,13.90
2022-11-01T00:44:26.681Z,13.90
2022-11-01T00:47:29.620Z,13.90
2022-11-01T00:50:33.940Z,13.90
2022-11-01T00:53:37.014Z,13.90
2022-11-01T00:56:39.969Z,13.90
2022-11-01T00:59:42.971Z,13.90
2022-11-01T01:02:45.995Z,13.90
2022-11-01T01:05:51.553Z,14.00
2022-11-01T01:08:54.548Z,13.90
2022-11-01T01:11:58.784Z,14.00
2022-11-01T01:15:01.780Z,14.00
2022-11-01T01:18:05.222Z,14.00
2022-11-01T01:21:10.093Z,14.10
2022-11-01T01:24:13.133Z,14.00
2022-11-01T01:27:17.570Z,14.00
2022-11-01T01:30:20.526Z,14.00
2022-11-01T01:33:23.510Z,14.00
2022-11-01T01:36:27.846Z,14.10
2022-11-01T01:39:30.870Z,14.10
2022-11-01T01:42:36.179Z,14.10
2022-11-01T01:45:40.977Z,14.10
2022-11-01T01:48:48.394Z,14.10
2022-11-01T01:51:52.781Z,14.10
2022-11-01T01:54:56.006Z,14.20
2022-11-01T01:57:59.706Z,14.20
2022-11-01T02:01:02.696Z,14.20
2022-11-01T02:04:10.152Z,14.20
2022-11-01T02:07:14.506Z,14.30
2022-11-01T02:10:18.380Z,14.30
2022-11-01T02:13:21.358Z,14.30
2022-11-01T02:16:40.027Z,14.40
2022-11-01T02:20:08.506Z,14.30
2022-11-01T02:23:43.462Z,14.40
2022-11-01T02:27:21.440Z,14.30
2022-11-01T02:30:25.665Z,14.30
2022-11-01T02:33:35.271Z,14.30
2022-11-01T02:36:45.393Z,14.40
2022-11-01T02:39:52.723Z,14.40
2022-11-01T02:43:00.118Z,14.50
2022-11-01T02:46:25.610Z,14.50
2022-11-01T02:49:33.699Z,14.50
2022-11-01T02:52:41.295Z,14.50
2022-11-01T02:58:53.737Z,14.50
2022-11-01T03:02:01.680Z,14.50
2022-11-01T03:05:09.396Z,14.50
2022-11-01T03:08:16.489Z,14.50
2022-11-01T03:11:21.889Z,14.50
2022-11-01T03:14:33.131Z,14.50
2022-11-01T03:17:49.293Z,14.50
2022-11-01T03:21:00.545Z,14.60
2022-11-01T03:24:12.540Z,14.60
2022-11-01T03:27:21.081Z,14.60
2022-11-01T03:30:24.445Z,14.60
2022-11-01T03:33:28.290Z,14.60
2022-11-01T03:36:36.380Z,14.60
2022-11-01T03:39:44.413Z,14.60
2022-11-01T03:42:50.797Z,14.70
2022-11-01T03:45:54.298Z,14.70
2022-11-01T03:48:57.790Z,14.80
2022-11-01T03:52:02.157Z,14.80
2022-11-01T03:55:18.077Z,14.80
2022-11-01T03:58:21.175Z,14.70
2022-11-01T04:01:24.238Z,14.80
2022-11-01T04:04:27.312Z,14.80
2022-11-01T04:07:31.618Z,14.80
2022-11-01T04:10:35.170Z,14.70
2022-11-01T04:13:39.001Z,14.70
2022-11-01T04:16:59.864Z,14.70
2022-11-01T04:20:20.332Z,14.80
2022-11-01T04:23:24.969Z,14.80
2022-11-01T04:26:27.961Z,14.70
2022-11-01T04:29:31.000Z,14.70
2022-11-01T04:32:33.955Z,14.70
2022-11-01T04:35:38.097Z,14.60
2022-11-01T04:38:42.392Z,14.70
2022-11-01T04:41:45.339Z,14.70
2022-11-01T04:44:49.435Z,14.70
2022-11-01T04:48:03.004Z,14.70
2022-11-01T04:51:06.456Z,14.70
2022-11-01T04:54:10.948Z,14.70
2022-11-01T04:57:22.947Z,14.70
2022-11-01T05:00:26.877Z,14.70
2022-11-01T05:03:29.853Z,14.70
2022-11-01T05:06:33.210Z,14.60
2022-11-01T05:09:37.533Z,14.60
2022-11-01T05:12:40.560Z,14.60
2022-11-01T05:15:59.557Z,14.50
2022-11-01T05:19:06.527Z,14.50
2022-11-01T05:22:09.562Z,14.60
2022-11-01T05:25:13.865Z,14.60
2022-11-01T05:28:16.834Z,14.60
2022-11-01T05:31:19.814Z,14.50
2022-11-01T05:34:23.007Z,14.60
2022-11-01T05:37:28.262Z,14.50
2022-11-01T05:40:32.960Z,14.60
2022-11-01T05:43:35.936Z,14.60
2022-11-01T05:46:38.901Z,14.50
2022-11-01T05:49:42.209Z,14.50
2022-11-01T05:52:45.210Z,14.50
2022-11-01T05:55:49.584Z,14.50
2022-11-01T05:58:52.532Z,14.50
2022-11-01T06:01:55.617Z,14.40
2022-11-01T06:05:02.607Z,14.50
2022-11-01T06:08:07.302Z,14.50
2022-11-01T06:11:12.493Z,14.50
2022-11-01T06:14:15.675Z,14.50
2022-11-01T06:17:18.769Z,14.50
2022-11-01T06:20:21.744Z,14.60
2022-11-01T06:23:25.068Z,14.60
2022-11-01T06:26:29.342Z,14.50
2022-11-01T06:29:32.280Z,14.50
2022-11-01T06:32:35.249Z,14.50
2022-11-01T06:35:38.739Z,14.50
2022-11-01T06:38:41.689Z,14.50
2022-11-01T06:41:46.000Z,14.60
2022-11-01T06:44:48.970Z,14.70
2022-11-01T06:47:51.918Z,14.60
2022-11-01T06:50:55.689Z,14.70
2022-11-01T06:53:58.661Z,14.70
2022-11-01T06:57:02.990Z,14.70
2022-11-01T07:00:07.297Z,14.70
2022-11-01T07:03:13.887Z,14.70
2022-11-01T07:06:16.893Z,14.70
2022-11-01T07:09:19.832Z,14.70
2022-11-01T07:12:24.149Z,14.70
2022-11-01T07:15:27.300Z,14.70
2022-11-01T07:18:30.561Z,14.70
2022-11-01T07:21:33.546Z,14.60
2022-11-01T07:24:36.514Z,14.60
2022-11-01T07:27:40.799Z,14.70
2022-11-01T07:30:44.497Z,14.70
2022-11-01T07:33:47.455Z,14.70
2022-11-01T07:36:53.447Z,14.80
2022-11-01T07:39:56.433Z,14.80
2022-11-01T07:43:01.325Z,14.80
2022-11-01T07:46:06.938Z,14.80
2022-11-01T07:49:10.040Z,14.80
2022-11-01T07:52:13.016Z,14.90
2022-11-01T07:55:16.242Z,15.00
2022-11-01T07:58:20.662Z,15.00
2022-11-01T08:01:23.730Z,15.10
2022-11-01T08:04:26.744Z,15.20
2022-11-01T08:07:29.781Z,15.20
2022-11-01T08:10:34.208Z,15.30
2022-11-01T08:13:38.544Z,15.30
2022-11-01T08:16:41.606Z,15.40
2022-11-01T08:19:44.565Z,15.30
2022-11-01T08:22:47.836Z,15.40
2022-11-01T08:25:50.837Z,15.40
2022-11-01T08:28:55.251Z,15.40
2022-11-01T08:31:58.195Z,15.50
2022-11-01T08:35:01.204Z,15.60
2022-11-01T08:38:05.187Z,15.80
2022-11-01T08:41:08.167Z,15.70
2022-11-01T08:44:12.589Z,15.70
2022-11-01T08:47:15.702Z,15.80
2022-11-01T08:50:19.156Z,15.80
2022-11-01T08:53:22.163Z,15.90
2022-11-01T08:56:27.342Z,15.90
2022-11-01T08:59:31.678Z,15.90
2022-11-01T09:02:35.069Z,15.90
2022-11-01T09:05:38.041Z,15.90
2022-11-01T09:08:41.068Z,16.00
2022-11-01T09:11:44.012Z,16.10
2022-11-01T09:14:49.023Z,16.30
2022-11-01T09:17:52.909Z,16.40
2022-11-01T09:20:56.265Z,16.60
2022-11-01T09:23:59.790Z,16.90
2022-11-01T09:27:02.998Z,17.10
2022-11-01T09:30:08.238Z,17.30
2022-11-01T09:33:11.218Z,17.50
2022-11-01T09:36:14.198Z,17.60
2022-11-01T09:39:21.945Z,17.70
2022-11-01T09:42:29.655Z,17.80
2022-11-01T09:45:35.234Z,17.90
2022-11-01T09:48:40.716Z,17.90
2022-11-01T09:51:43.871Z,18.00
2022-11-01T09:54:47.479Z,18.00
2022-11-01T09:57:55.885Z,18.00
2022-11-01T10:01:08.814Z,18.00
2022-11-01T10:04:29.729Z,18.00
2022-11-01T10:07:45.272Z,18.00
2022-11-01T10:10:58.236Z,18.00
2022-11-01T10:14:11.515Z,18.00
2022-11-01T10:17:17.577Z,17.90
2022-11-01T10:20:23.609Z,17.90
2022-11-01T10:23:43.061Z,18.00
2022-11-01T10:26:47.130Z,18.00
2022-11-01T10:29:55.739Z,18.00
2022-11-01T10:33:17.868Z,18.00
2022-11-01T10:36:24.601Z,18.00
2022-11-01T10:39:54.286Z,18.00
2022-11-01T10:42:59.381Z,18.00
2022-11-01T10:46:07.106Z,18.20
2022-11-01T10:49:20.182Z,18.70
2022-11-01T10:52:26.792Z,19.60
2022-11-01T10:55:35.813Z,20.30
2022-11-01T10:58:42.519Z,21.00
2022-11-01T11:01:47.136Z,22.00
2022-11-01T11:04:51.694Z,23.00
2022-11-01T11:07:57.281Z,23.50
2022-11-01T11:11:08.903Z,23.60
2022-11-01T11:14:13.854Z,23.80
2022-11-01T11:17:21.481Z,24.40
2022-11-01T11:20:30.162Z,24.90
2022-11-01T11:23:34.611Z,24.60
2022-11-01T11:29:52.218Z,25.00
2022-11-01T11:32:55.726Z,25.20
2022-11-01T11:36:00.837Z,25.50
2022-11-01T11:39:04.203Z,25.70
2022-11-01T11:42:17.483Z,25.90
2022-11-01T11:45:24.465Z,25.80
2022-11-01T11:48:27.420Z,25.50
2022-11-01T11:51:34.014Z,25.80
2022-11-01T11:54:38.971Z,25.80
2022-11-01T11:57:51.836Z,25.70
2022-11-01T12:01:00.086Z,26.30
2022-11-01T12:04:08.769Z,26.40
2022-11-01T12:07:29.291Z,26.80
2022-11-01T12:10:34.921Z,27.00
2022-11-01T12:13:41.203Z,26.70
2022-11-01T12:16:44.342Z,26.40
2022-11-01T12:19:47.299Z,26.40
2022-11-01T12:22:55.682Z,27.10
2022-11-01T12:25:59.909Z,27.10
2022-11-01T12:29:11.178Z,27.30
2022-11-01T12:32:19.819Z,27.10
2022-11-01T12:35:30.536Z,27.60
2022-11-01T12:38:42.184Z,28.00
2022-11-01T12:41:48.475Z,27.90
2022-11-01T12:44:55.394Z,27.70
2022-11-01T12:48:01.681Z,27.50
2022-11-01T12:51:08.987Z,27.60
2022-11-01T12:54:17.143Z,27.40
2022-11-01T12:57:20.137Z,27.10
2022-11-01T13:00:24.429Z,26.80
2022-11-01T13:03:38.451Z,26.70
2022-11-01T13:06:55.320Z,26.10
2022-11-01T13:10:08.276Z,25.90
2022-11-01T13:13:19.180Z,25.50
2022-11-01T13:16:27.941Z,25.30
2022-11-01T13:19:37.441Z,25.30
2022-11-01T13:22:47.790Z,25.10
2022-11-01T13:26:01.688Z,25.20
2022-11-01T13:32:27.540Z,24.20
2022-11-01T13:35:45.749Z,23.80
2022-11-01T13:38:57.097Z,23.40
2022-11-01T13:42:08.697Z,22.50
2022-11-01T13:45:30.565Z,21.80
2022-11-01T13:48:42.117Z,21.30
2022-11-01T13:51:49.557Z,20.90
2022-11-01T13:54:59.143Z,20.50
2022-11-01T13:58:05.928Z,20.50
2022-11-01T14:01:31.668Z,20.40
2022-11-01T14:04:55.395Z,20.30
2022-11-01T14:08:15.112Z,20.30
2022-11-01T14:11:45.183Z,20.10
2022-11-01T14:14:53.559Z,20.00
2022-11-01T14:18:11.092Z,19.80
2022-11-01T14:21:28.560Z,19.60
2022-11-01T14:24:35.180Z,19.40
2022-11-01T14:27:40.526Z,19.30
2022-11-01T14:30:49.511Z,19.20
2022-11-01T14:33:57.500Z,19.10
2022-11-01T14:37:21.631Z,19.00
2022-11-01T14:40:34.463Z,18.90
2022-11-01T14:43:41.974Z,18.80
2022-11-01T14:46:49.140Z,18.60
2022-11-01T14:49:56.034Z,18.50
2022-11-01T14:53:06.276Z,18.40
2022-11-01T14:56:16.014Z,18.40
2022-11-01T14:59:22.404Z,18.20
2022-11-01T15:02:29.187Z,18.20
2022-11-01T15:05:32.244Z,18.10
2022-11-01T15:08:41.385Z,18.00
2022-11-01T15:11:44.510Z,17.90
2022-11-01T15:14:49.088Z,17.90
2022-11-01T15:17:56.686Z,17.90
2022-11-01T15:21:00.897Z,17.80
2022-11-01T15:24:04.771Z,17.70
2022-11-01T15:27:12.394Z,17.70
2022-11-01T15:30:21.879Z,17.60
2022-11-01T15:33:30.576Z,17.40
2022-11-01T15:36:36.640Z,17.40
2022-11-01T15:39:39.612Z,17.30
2022-11-01T15:42:48.891Z,17.20
2022-11-01T15:45:54.783Z,17.20
2022-11-01T15:49:02.261Z,17.10
2022-11-01T15:52:08.418Z,17.10
2022-11-01T15:55:18.986Z,17.10
2022-11-01T15:58:27.682Z,17.00
2022-11-01T16:01:31.254Z,17.00
2022-11-01T16:04:41.996Z,17.00
2022-11-01T16:07:45.668Z,16.90
2022-11-01T16:10:49.571Z,16.80
2022-11-01T16:13:57.159Z,16.80
2022-11-01T16:17:02.206Z,16.70
2022-11-01T16:20:29.874Z,16.70
2022-11-01T16:23:33.288Z,16.60
2022-11-01T16:26:52.921Z,16.50
2022-11-01T16:29:56.329Z,16.40
2022-11-01T16:33:08.813Z,16.40
2022-11-01T16:36:35.584Z,16.40
2022-11-01T16:39:38.567Z,16.40
2022-11-01T16:42:41.620Z,16.30
2022-11-01T16:45:44.648Z,16.30
2022-11-01T16:48:53.379Z,16.30
2022-11-01T16:51:58.181Z,16.30
2022-11-01T16:58:16.008Z,16.30
2022-11-01T17:01:22.607Z,16.20
2022-11-01T17:04:27.766Z,16.20
2022-11-01T17:07:32.090Z,16.10
2022-11-01T17:10:35.118Z,16.10
2022-11-01T17:13:38.253Z,16.00
2022-11-01T17:16:43.343Z,16.00
2022-11-01T17:19:50.035Z,16.00
2022-11-01T17:22:56.204Z,15.90
2022-11-01T17:25:59.256Z,15.90
2022-11-01T17:29:02.556Z,15.90
2022-11-01T17:32:09.438Z,15.90
2022-11-01T17:35:12.691Z,15.80
2022-11-01T17:38:20.524Z,15.80
2022-11-01T17:41:23.571Z,15.70
2022-11-01T17:44:26.586Z,15.60
2022-11-01T17:47:29.519Z,15.60
2022-11-01T17:50:33.440Z,15.70
2022-11-01T17:53:39.435Z,15.60
2022-11-01T17:56:42.572Z,15.60
2022-11-01T17:59:45.552Z,15.50
2022-11-01T18:02:48.918Z,15.50
2022-11-01T18:05:51.897Z,15.50
2022-11-01T18:08:56.183Z,15.50
2022-11-01T18:12:05.628Z,15.50
2022-11-01T18:15:15.186Z,15.40
2022-11-01T18:18:30.385Z,15.50
2022-11-01T18:21:43.820Z,15.50
2022-11-01T18:24:53.160Z,15.40
2022-11-01T18:27:57.213Z,15.40
2022-11-01T18:31:01.634Z,15.40
2022-11-01T18:34:12.711Z,15.40
2022-11-01T18:37:22.854Z,15.40
2022-11-01T18:40:33.576Z,15.40
2022-11-01T18:43:38.615Z,15.40
2022-11-01T18:46:47.200Z,15.40
2022-11-01T18:49:50.999Z,15.50
2022-11-01T18:53:04.128Z,15.50
2022-11-01T18:56:21.235Z,15.50
2022-11-01T18:59:30.053Z,15.50
2022-11-01T19:02:34.403Z,15.50
2022-11-01T19:05:37.443Z,15.40
2022-11-01T19:08:40.657Z,15.40
2022-11-01T19:11:44.995Z,15.40
2022-11-01T19:14:54.374Z,15.30
2022-11-01T19:18:02.709Z,15.30
2022-11-01T19:21:15.490Z,15.20
2022-11-01T19:24:33.370Z,15.30
2022-11-01T19:27:37.727Z,15.30
2022-11-01T19:30:40.681Z,15.30
2022-11-01T19:33:48.073Z,15.20
2022-11-01T19:36:52.580Z,15.20
2022-11-01T19:39:57.016Z,15.20
2022-11-01T19:43:10.351Z,15.20
2022-11-01T19:46:17.206Z,15.20
2022-11-01T19:49:24.709Z,15.20
2022-11-01T19:52:35.283Z,15.30
2022-11-01T19:55:43.753Z,15.20
2022-11-01T19:58:50.301Z,15.20
2022-11-01T20:01:53.383Z,15.30
2022-11-01T20:05:01.039Z,15.20
2022-11-01T20:08:15.090Z,15.20
2022-11-01T20:11:18.131Z,15.20
2022-11-01T20:14:22.733Z,15.20
2022-11-01T20:17:26.270Z,15.20
2022-11-01T20:20:29.245Z,15.20
2022-11-01T20:23:32.635Z,15.20
2022-11-01T20:26:35.692Z,15.20
2022-11-01T20:29:40.224Z,15.10
2022-11-01T20:32:43.293Z,15.10
2022-11-01T20:35:46.312Z,15.00
2022-11-01T20:38:49.279Z,15.00
2022-11-01T20:41:52.308Z,15.10
2022-11-01T20:44:56.664Z,15.10
2022-11-01T20:47:59.648Z,15.10
2022-11-01T20:51:02.716Z,15.10
2022-11-01T20:54:05.760Z,15.10
2022-11-01T20:57:15.637Z,15.00
2022-11-01T21:00:29.300Z,15.00
2022-11-01T21:03:32.291Z,14.90
2022-11-01T21:06:36.835Z,14.90
2022-11-01T21:09:43.592Z,14.90
2022-11-01T21:12:48.028Z,14.90
2022-11-01T21:15:53.207Z,14.90
2022-11-01T21:19:02.043Z,14.90
2022-11-01T21:22:07.158Z,14.90
2022-11-01T21:25:20.504Z,14.90
2022-11-01T21:28:29.913Z,14.90
2022-11-01T21:31:38.653Z,14.90
2022-11-01T21:34:43.084Z,14.90
2022-11-01T21:37:47.367Z,14.90
2022-11-01T21:40:50.336Z,14.90
2022-11-01T21:43:53.888Z,14.90
2022-11-01T21:47:02.261Z,14.90
2022-11-01T21:50:05.875Z,14.90
2022-11-01T21:53:08.893Z,14.90
2022-11-01T21:56:11.942Z,15.00
2022-11-01T21:59:15.101Z,14.90
2022-11-01T22:02:19.527Z,14.80
2022-11-01T22:05:22.593Z,14.80
2022-11-01T22:08:25.605Z,14.80
2022-11-01T22:11:32.493Z,14.80
2022-11-01T22:14:35.949Z,14.80
2022-11-01T22:17:40.255Z,14.80
2022-11-01T22:20:43.183Z,14.70
2022-11-01T22:23:46.240Z,14.70
2022-11-01T22:26:49.238Z,14.70
2022-11-01T22:29:52.212Z,14.70
2022-11-01T22:32:56.512Z,14.70
2022-11-01T22:36:00.028Z,14.70
2022-11-01T22:39:11.614Z,14.70
2022-11-01T22:42:16.104Z,14.70
2022-11-01T22:45:19.450Z,14.60
2022-11-01T22:48:24.855Z,14.60
2022-11-01T22:51:35.741Z,14.60
2022-11-01T22:54:42.414Z,14.50
2022-11-01T22:57:50.154Z,14.50
2022-11-01T23:00:53.259Z,14.50
2022-11-01T23:03:59.031Z,14.50
2022-11-01T23:07:02.432Z,14.50
2022-11-01T23:10:07.689Z,14.50
2022-11-01T23:13:37.256Z,14.50
2022-11-01T23:16:44.688Z,14.50
2022-11-01T23:19:51.525Z,14.50
2022-11-01T23:22:54.500Z,14.40
2022-11-01T23:26:00.365Z,14.40
2022-11-01T23:29:03.766Z,14.40
2022-11-01T23:32:06.797Z,14.40
2022-11-01T23:35:15.703Z,14.30
2022-11-01T23:38:22.098Z,14.30
2022-11-01T23:41:27.810Z,14.30
2022-11-01T23:44:32.944Z,14.30
2022-11-01T23:47:38.867Z,14.30
2022-11-01T23:50:43.891Z,14.30
2022-11-01T23:53:49.432Z,14.30
2022-11-01T23:56:52.617Z,14.20
2022-11-01T23:59:55.673Z,14.20
